sensor_id;sensor_type;location;lat;lon;timestamp;temperature;humidity
31735;DHT22;18313;48.518;9.124;2022-12-18T00:01:46;-9.00;99.90
31735;DHT22;18313;48.518;9.124;2022-12-18T00:04:33;-9.10;99.90
31735;DHT22;18313;48.518;9.124;2022-12-18T00:07:19;-9.00;99.90
31735;DHT22;18313;48.518;9.124;2022-12-18T00:10:05;-9.00;99.90
31735;DHT22;18313;48.518;9.124;2022-12-18T00:12:50;-9.00;99.90
31735;DHT22;18313;48.518;9.124;2022-12-18T00:15:38;-9.00;99.90
31735;DHT22;18313;48.518;9.124;2022-12-18T00:18:24;-9.10;99.90
31735;DHT22;18313;48.518;9.124;2022-12-18T00:21:11;-9.10;99.90
31735;DHT22;18313;48.518;9.124;2022-12-18T00:23:57;-9.10;99.90
31735;DHT22;18313;48.518;9.124;2022-12-18T00:26:43;-9.20;99.90
31735;DHT22;18313;48.518;9.124;2022-12-18T00:29:29;-9.30;99.90
31735;DHT22;18313;48.518;9.124;2022-12-18T00:32:14;-9.30;99.90
31735;DHT22;18313;48.518;9.124;2022-12-18T00:34:59;-9.40;99.90
31735;DHT22;18313;48.518;9.124;2022-12-18T00:37:45;-9.40;99.90
31735;DHT22;18313;48.518;9.124;2022-12-18T00:40:31;-9.50;99.90
31735;DHT22;18313;48.518;9.124;2022-12-18T00:43:16;-9.50;99.90
31735;DHT22;18313;48.518;9.124;2022-12-18T00:46:02;-9.50;99.90
31735;DHT22;18313;48.518;9.124;2022-12-18T00:48:49;-9.50;99.90
31735;DHT22;18313;48.518;9.124;2022-12-18T00:51:34;-9.60;99.90
31735;DHT22;18313;48.518;9.124;2022-12-18T00:54:20;-9.60;99.90
31735;DHT22;18313;48.518;9.124;2022-12-18T00:57:05;-9.60;99.90
31735;DHT22;18313;48.518;9.124;2022-12-18T00:59:51;-9.70;99.90
31735;DHT22;18313;48.518;9.124;2022-12-18T01:02:37;-9.70;99.90
31735;DHT22;18313;48.518;9.124;2022-12-18T01:05:22;-9.70;99.90
31735;DHT22;18313;48.518;9.124;2022-12-18T01:08:07;-9.80;99.90
31735;DHT22;18313;48.518;9.124;2022-12-18T01:10:53;-9.80;99.90
31735;DHT22;18313;48.518;9.124;2022-12-18T01:13:39;-9.80;99.90
31735;DHT22;18313;48.518;9.124;2022-12-18T01:16:26;-10.00;99.90
31735;DHT22;18313;48.518;9.124;2022-12-18T01:19:11;-10.10;99.90
31735;DHT22;18313;48.518;9.124;2022-12-18T01:21:57;-10.10;99.90
31735;DHT22;18313;48.518;9.124;2022-12-18T01:24:42;-10.10;99.90
31735;DHT22;18313;48.518;9.124;2022-12-18T01:27:28;-10.20;99.90
31735;DHT22;18313;48.518;9.124;2022-12-18T01:30:14;-10.10;99.90
31735;DHT22;18313;48.518;9.124;2022-12-18T01:32:59;-10.20;99.90
31735;DHT22;18313;48.518;9.124;2022-12-18T01:35:45;-10.10;99.90
31735;DHT22;18313;48.518;9.124;2022-12-18T01:38:30;-10.10;99.90
31735;DHT22;18313;48.518;9.124;2022-12-18T01:41:19;-10.20;99.90
31735;DHT22;18313;48.518;9.124;2022-12-18T01:47:47;-10.20;99.90
31735;DHT22;18313;48.518;9.124;2022-12-18T01:50:42;-10.20;99.90
31735;DHT22;18313;48.518;9.124;2022-12-18T01:53:28;-10.20;99.90
31735;DHT22;18313;48.518;9.124;2022-12-18T01:56:16;-10.20;99.90
31735;DHT22;18313;48.518;9.124;2022-12-18T01:59:04;-10.20;99.90
31735;DHT22;18313;48.518;9.124;2022-12-18T02:01:51;-10.20;99.90
31735;DHT22;18313;48.518;9.124;2022-12-18T02:04:37;-10.20;99.90
31735;DHT22;18313;48.518;9.124;2022-12-18T02:07:37;-10.10;99.90
31735;DHT22;18313;48.518;9.124;2022-12-18T02:11:05;-10.20;99.90
31735;DHT22;18313;48.518;9.124;2022-12-18T02:17:00;-10.10;99.90
31735;DHT22;18313;48.518;9.124;2022-12-18T02:23:24;-10.20;99.90
31735;DHT22;18313;48.518;9.124;2022-12-18T02:29:15;-10.20;99.90
31735;DHT22;18313;48.518;9.124;2022-12-18T02:32:06;-10.10;99.90
31735;DHT22;18313;48.518;9.124;2022-12-18T02:34:56;-10.10;99.90
31735;DHT22;18313;48.518;9.124;2022-12-18T02:37:44;-10.00;99.90
31735;DHT22;18313;48.518;9.124;2022-12-18T02:40:31;-10.20;99.90
31735;DHT22;18313;48.518;9.124;2022-12-18T02:43:17;-10.20;99.90
31735;DHT22;18313;48.518;9.124;2022-12-18T02:46:35;-10.20;99.90
31735;DHT22;18313;48.518;9.124;2022-12-18T03:04:47;-9.90;99.90
31735;DHT22;18313;48.518;9.124;2022-12-18T03:08:00;-9.80;99.90
31735;DHT22;18313;48.518;9.124;2022-12-18T03:10:58;-9.80;99.90
31735;DHT22;18313;48.518;9.124;2022-12-18T03:13:54;-9.90;99.90
31735;DHT22;18313;48.518;9.124;2022-12-18T03:16:42;-9.80;99.90
31735;DHT22;18313;48.518;9.124;2022-12-18T03:19:32;-9.80;99.90
31735;DHT22;18313;48.518;9.124;2022-12-18T03:22:18;-9.70;99.90
31735;DHT22;18313;48.518;9.124;2022-12-18T03:25:08;-9.70;99.90
31735;DHT22;18313;48.518;9.124;2022-12-18T03:27:56;-9.70;99.90
31735;DHT22;18313;48.518;9.124;2022-12-18T03:30:45;-9.70;99.90
31735;DHT22;18313;48.518;9.124;2022-12-18T03:33:42;-9.70;99.90
31735;DHT22;18313;48.518;9.124;2022-12-18T03:36:30;-9.70;99.90
31735;DHT22;18313;48.518;9.124;2022-12-18T03:39:17;-9.70;99.90
31735;DHT22;18313;48.518;9.124;2022-12-18T03:42:28;-9.60;99.90
31735;DHT22;18313;48.518;9.124;2022-12-18T03:45:26;-9.60;99.90
31735;DHT22;18313;48.518;9.124;2022-12-18T03:48:35;-9.50;99.90
31735;DHT22;18313;48.518;9.124;2022-12-18T03:51:28;-9.50;99.90
31735;DHT22;18313;48.518;9.124;2022-12-18T03:54:18;-9.60;99.90
31735;DHT22;18313;48.518;9.124;2022-12-18T03:57:11;-9.60;99.90
31735;DHT22;18313;48.518;9.124;2022-12-18T04:00:16;-9.60;99.90
31735;DHT22;18313;48.518;9.124;2022-12-18T04:03:03;-9.70;99.90
31735;DHT22;18313;48.518;9.124;2022-12-18T04:05:51;-9.80;99.90
31735;DHT22;18313;48.518;9.124;2022-12-18T04:08:38;-9.80;99.90
31735;DHT22;18313;48.518;9.124;2022-12-18T04:11:25;-9.80;99.90
31735;DHT22;18313;48.518;9.124;2022-12-18T04:14:11;-9.80;99.90
31735;DHT22;18313;48.518;9.124;2022-12-18T04:17:03;-9.80;99.90
31735;DHT22;18313;48.518;9.124;2022-12-18T04:19:48;-9.80;99.90
31735;DHT22;18313;48.518;9.124;2022-12-18T04:22:34;-10.00;99.90
31735;DHT22;18313;48.518;9.124;2022-12-18T04:25:20;-10.20;99.90
31735;DHT22;18313;48.518;9.124;2022-12-18T04:28:06;-10.20;99.90
31735;DHT22;18313;48.518;9.124;2022-12-18T04:30:51;-10.20;99.90
31735;DHT22;18313;48.518;9.124;2022-12-18T04:33:37;-10.20;99.90
31735;DHT22;18313;48.518;9.124;2022-12-18T04:36:23;-10.10;99.90
31735;DHT22;18313;48.518;9.124;2022-12-18T04:39:12;-10.20;99.90
31735;DHT22;18313;48.518;9.124;2022-12-18T04:41:58;-10.20;99.90
31735;DHT22;18313;48.518;9.124;2022-12-18T04:44:43;-10.20;99.90
31735;DHT22;18313;48.518;9.124;2022-12-18T04:47:30;-10.20;99.90
31735;DHT22;18313;48.518;9.124;2022-12-18T04:50:16;-10.30;99.90
31735;DHT22;18313;48.518;9.124;2022-12-18T04:53:02;-10.30;99.90
31735;DHT22;18313;48.518;9.124;2022-12-18T04:55:47;-10.50;99.90
31735;DHT22;18313;48.518;9.124;2022-12-18T04:58:33;-10.50;99.90
31735;DHT22;18313;48.518;9.124;2022-12-18T05:01:18;-10.70;99.90
31735;DHT22;18313;48.518;9.124;2022-12-18T05:04:05;-10.70;99.90
31735;DHT22;18313;48.518;9.124;2022-12-18T05:06:50;-10.70;99.90
31735;DHT22;18313;48.518;9.124;2022-12-18T05:09:36;-10.80;99.90
31735;DHT22;18313;48.518;9.124;2022-12-18T05:12:24;-10.80;99.90
31735;DHT22;18313;48.518;9.124;2022-12-18T05:15:10;-10.80;99.90
31735;DHT22;18313;48.518;9.124;2022-12-18T05:17:57;-10.60;99.90
31735;DHT22;18313;48.518;9.124;2022-12-18T05:20:43;-10.70;99.90
31735;DHT22;18313;48.518;9.124;2022-12-18T05:23:29;-10.70;99.90
31735;DHT22;18313;48.518;9.124;2022-12-18T05:26:16;-10.70;99.90
31735;DHT22;18313;48.518;9.124;2022-12-18T05:29:02;-10.80;99.90
31735;DHT22;18313;48.518;9.124;2022-12-18T05:31:48;-10.80;99.90
31735;DHT22;18313;48.518;9.124;2022-12-18T05:34:33;-10.70;99.90
31735;DHT22;18313;48.518;9.124;2022-12-18T05:37:19;-10.80;99.90
31735;DHT22;18313;48.518;9.124;2022-12-18T05:40:05;-10.90;99.90
31735;DHT22;18313;48.518;9.124;2022-12-18T05:42:50;-10.90;99.90
31735;DHT22;18313;48.518;9.124;2022-12-18T05:45:37;-10.90;99.90
31735;DHT22;18313;48.518;9.124;2022-12-18T05:48:23;-10.80;99.90
31735;DHT22;18313;48.518;9.124;2022-12-18T05:51:12;-10.70;99.90
31735;DHT22;18313;48.518;9.124;2022-12-18T05:53:58;-10.80;99.90
31735;DHT22;18313;48.518;9.124;2022-12-18T05:56:43;-10.90;99.90
31735;DHT22;18313;48.518;9.124;2022-12-18T05:59:33;-10.80;99.90
31735;DHT22;18313;48.518;9.124;2022-12-18T06:02:18;-10.80;99.90
31735;DHT22;18313;48.518;9.124;2022-12-18T06:05:06;-11.00;99.90
31735;DHT22;18313;48.518;9.124;2022-12-18T06:07:52;-11.10;99.90
31735;DHT22;18313;48.518;9.124;2022-12-18T06:10:38;-11.10;99.90
31735;DHT22;18313;48.518;9.124;2022-12-18T06:13:23;-11.10;99.90
31735;DHT22;18313;48.518;9.124;2022-12-18T06:16:09;-11.20;99.90
31735;DHT22;18313;48.518;9.124;2022-12-18T06:18:57;-11.40;99.90
31735;DHT22;18313;48.518;9.124;2022-12-18T06:21:44;-11.30;99.90
31735;DHT22;18313;48.518;9.124;2022-12-18T06:24:30;-11.40;99.90
31735;DHT22;18313;48.518;9.124;2022-12-18T06:27:15;-11.40;99.90
31735;DHT22;18313;48.518;9.124;2022-12-18T06:30:02;-11.30;99.90
31735;DHT22;18313;48.518;9.124;2022-12-18T06:32:49;-11.30;99.90
31735;DHT22;18313;48.518;9.124;2022-12-18T06:35:41;-11.30;99.90
31735;DHT22;18313;48.518;9.124;2022-12-18T06:38:26;-11.40;99.90
31735;DHT22;18313;48.518;9.124;2022-12-18T06:41:14;-11.30;99.90
31735;DHT22;18313;48.518;9.124;2022-12-18T06:44:00;-11.30;99.90
31735;DHT22;18313;48.518;9.124;2022-12-18T06:46:45;-11.20;99.90
31735;DHT22;18313;48.518;9.124;2022-12-18T06:49:31;-11.20;99.90
31735;DHT22;18313;48.518;9.124;2022-12-18T06:52:16;-11.20;99.90
31735;DHT22;18313;48.518;9.124;2022-12-18T06:55:02;-11.30;99.90
31735;DHT22;18313;48.518;9.124;2022-12-18T06:57:47;-11.30;99.90
31735;DHT22;18313;48.518;9.124;2022-12-18T07:00:33;-11.30;99.90
31735;DHT22;18313;48.518;9.124;2022-12-18T07:03:18;-11.50;99.90
31735;DHT22;18313;48.518;9.124;2022-12-18T07:06:04;-11.60;99.90
31735;DHT22;18313;48.518;9.124;2022-12-18T07:08:51;-11.60;99.90
31735;DHT22;18313;48.518;9.124;2022-12-18T07:11:36;-11.50;99.90
31735;DHT22;18313;48.518;9.124;2022-12-18T07:14:21;-11.60;99.90
31735;DHT22;18313;48.518;9.124;2022-12-18T07:17:07;-11.60;99.90
31735;DHT22;18313;48.518;9.124;2022-12-18T07:19:53;-11.50;99.90
31735;DHT22;18313;48.518;9.124;2022-12-18T07:22:38;-11.50;99.90
31735;DHT22;18313;48.518;9.124;2022-12-18T07:25:24;-11.50;99.90
31735;DHT22;18313;48.518;9.124;2022-12-18T07:28:09;-11.50;99.90
31735;DHT22;18313;48.518;9.124;2022-12-18T07:31:09;-11.50;99.90
31735;DHT22;18313;48.518;9.124;2022-12-18T07:33:56;-11.40;99.90
31735;DHT22;18313;48.518;9.124;2022-12-18T07:36:41;-11.40;99.90
31735;DHT22;18313;48.518;9.124;2022-12-18T07:39:27;-11.40;99.90
31735;DHT22;18313;48.518;9.124;2022-12-18T07:42:12;-11.30;99.90
31735;DHT22;18313;48.518;9.124;2022-12-18T07:45:16;-11.30;99.90
31735;DHT22;18313;48.518;9.124;2022-12-18T07:48:01;-11.30;99.90
31735;DHT22;18313;48.518;9.124;2022-12-18T07:50:46;-11.30;99.90
31735;DHT22;18313;48.518;9.124;2022-12-18T07:53:33;-11.20;99.90
31735;DHT22;18313;48.518;9.124;2022-12-18T07:56:20;-11.20;99.90
31735;DHT22;18313;48.518;9.124;2022-12-18T07:59:15;-11.20;99.90
31735;DHT22;18313;48.518;9.124;2022-12-18T08:02:00;-11.20;99.90
31735;DHT22;18313;48.518;9.124;2022-12-18T08:04:46;-11.10;99.90
31735;DHT22;18313;48.518;9.124;2022-12-18T08:07:32;-11.10;99.90
31735;DHT22;18313;48.518;9.124;2022-12-18T08:10:18;-11.00;99.90
31735;DHT22;18313;48.518;9.124;2022-12-18T08:13:03;-11.00;99.90
31735;DHT22;18313;48.518;9.124;2022-12-18T08:16:03;-11.00;99.90
31735;DHT22;18313;48.518;9.124;2022-12-18T08:18:52;-11.00;99.90
31735;DHT22;18313;48.518;9.124;2022-12-18T08:21:37;-10.90;99.90
31735;DHT22;18313;48.518;9.124;2022-12-18T08:24:23;-10.80;99.90
31735;DHT22;18313;48.518;9.124;2022-12-18T08:27:09;-10.70;99.90
31735;DHT22;18313;48.518;9.124;2022-12-18T08:30:13;-10.50;99.90
31735;DHT22;18313;48.518;9.124;2022-12-18T08:32:59;-10.50;99.90
31735;DHT22;18313;48.518;9.124;2022-12-18T08:35:44;-10.50;99.90
31735;DHT22;18313;48.518;9.124;2022-12-18T08:38:31;-10.30;99.90
31735;DHT22;18313;48.518;9.124;2022-12-18T08:41:17;-10.10;99.90
31735;DHT22;18313;48.518;9.124;2022-12-18T08:44:03;-9.90;99.90
31735;DHT22;18313;48.518;9.124;2022-12-18T08:47:08;-9.60;99.90
31735;DHT22;18313;48.518;9.124;2022-12-18T08:49:53;-9.30;99.90
31735;DHT22;18313;48.518;9.124;2022-12-18T08:52:39;-9.10;99.90
31735;DHT22;18313;48.518;9.124;2022-12-18T08:55:24;-8.90;99.90
31735;DHT22;18313;48.518;9.124;2022-12-18T08:58:10;-8.70;99.90
31735;DHT22;18313;48.518;9.124;2022-12-18T09:01:03;-8.60;99.90
31735;DHT22;18313;48.518;9.124;2022-12-18T09:03:50;-8.40;99.90
31735;DHT22;18313;48.518;9.124;2022-12-18T09:06:35;-8.30;99.90
31735;DHT22;18313;48.518;9.124;2022-12-18T09:09:22;-8.20;99.90
31735;DHT22;18313;48.518;9.124;2022-12-18T09:12:09;-8.10;99.90
31735;DHT22;18313;48.518;9.124;2022-12-18T09:14:54;-7.90;99.90
31735;DHT22;18313;48.518;9.124;2022-12-18T09:17:41;-7.70;99.90
31735;DHT22;18313;48.518;9.124;2022-12-18T09:20:27;-7.50;99.90
31735;DHT22;18313;48.518;9.124;2022-12-18T09:23:15;-7.40;99.90
31735;DHT22;18313;48.518;9.124;2022-12-18T09:26:00;-7.30;99.90
31735;DHT22;18313;48.518;9.124;2022-12-18T09:28:47;-7.20;99.90
31735;DHT22;18313;48.518;9.124;2022-12-18T09:31:33;-7.10;99.90
31735;DHT22;18313;48.518;9.124;2022-12-18T09:34:18;-7.20;99.90
31735;DHT22;18313;48.518;9.124;2022-12-18T09:37:06;-7.30;99.90
31735;DHT22;18313;48.518;9.124;2022-12-18T09:39:52;-7.30;99.90
31735;DHT22;18313;48.518;9.124;2022-12-18T09:42:38;-7.30;99.90
31735;DHT22;18313;48.518;9.124;2022-12-18T09:45:24;-7.30;99.90
31735;DHT22;18313;48.518;9.124;2022-12-18T09:48:21;-7.10;99.90
31735;DHT22;18313;48.518;9.124;2022-12-18T09:51:17;-6.80;99.90
31735;DHT22;18313;48.518;9.124;2022-12-18T09:54:14;-6.40;99.90
31735;DHT22;18313;48.518;9.124;2022-12-18T09:57:02;-6.20;99.90
31735;DHT22;18313;48.518;9.124;2022-12-18T09:59:53;-5.90;99.90
31735;DHT22;18313;48.518;9.124;2022-12-18T10:02:39;-5.70;99.90
31735;DHT22;18313;48.518;9.124;2022-12-18T10:05:54;-5.40;99.90
31735;DHT22;18313;48.518;9.124;2022-12-18T10:08:57;-5.10;99.90
31735;DHT22;18313;48.518;9.124;2022-12-18T10:12:08;-4.90;99.90
31735;DHT22;18313;48.518;9.124;2022-12-18T10:21:23;-4.40;99.90
31735;DHT22;18313;48.518;9.124;2022-12-18T10:27:23;-4.10;99.90
31735;DHT22;18313;48.518;9.124;2022-12-18T10:30:20;-3.90;99.90
31735;DHT22;18313;48.518;9.124;2022-12-18T10:33:08;-3.70;99.90
31735;DHT22;18313;48.518;9.124;2022-12-18T10:35:55;-3.60;99.90
31735;DHT22;18313;48.518;9.124;2022-12-18T10:38:40;-3.50;99.90
31735;DHT22;18313;48.518;9.124;2022-12-18T10:41:27;-3.20;99.90
31735;DHT22;18313;48.518;9.124;2022-12-18T10:44:26;-3.10;99.90
31735;DHT22;18313;48.518;9.124;2022-12-18T10:47:15;-3.00;99.90
31735;DHT22;18313;48.518;9.124;2022-12-18T10:50:03;-3.00;99.90
31735;DHT22;18313;48.518;9.124;2022-12-18T10:52:55;-2.90;99.90
31735;DHT22;18313;48.518;9.124;2022-12-18T10:55:44;-2.80;99.90
31735;DHT22;18313;48.518;9.124;2022-12-18T10:58:37;-2.60;99.90
31735;DHT22;18313;48.518;9.124;2022-12-18T11:01:23;-2.40;99.90
31735;DHT22;18313;48.518;9.124;2022-12-18T11:04:09;-2.40;99.90
31735;DHT22;18313;48.518;9.124;2022-12-18T11:07:00;-2.20;99.90
31735;DHT22;18313;48.518;9.124;2022-12-18T11:10:00;-2.00;99.90
31735;DHT22;18313;48.518;9.124;2022-12-18T11:12:46;-2.00;99.90
31735;DHT22;18313;48.518;9.124;2022-12-18T11:15:33;-2.20;99.90
31735;DHT22;18313;48.518;9.124;2022-12-18T11:18:29;-2.20;99.90
31735;DHT22;18313;48.518;9.124;2022-12-18T11:21:16;-2.20;99.90
31735;DHT22;18313;48.518;9.124;2022-12-18T11:24:01;-2.00;99.90
31735;DHT22;18313;48.518;9.124;2022-12-18T11:26:48;-1.70;99.90
31735;DHT22;18313;48.518;9.124;2022-12-18T11:29:40;-1.50;99.90
31735;DHT22;18313;48.518;9.124;2022-12-18T11:32:35;-1.10;99.90
31735;DHT22;18313;48.518;9.124;2022-12-18T11:35:37;-0.90;99.90
31735;DHT22;18313;48.518;9.124;2022-12-18T11:38:28;-0.60;99.90
31735;DHT22;18313;48.518;9.124;2022-12-18T11:44:49;-0.20;99.90
31735;DHT22;18313;48.518;9.124;2022-12-18T11:48:02;0.10;99.90
31735;DHT22;18313;48.518;9.124;2022-12-18T11:50:52;0.30;99.90
31735;DHT22;18313;48.518;9.124;2022-12-18T11:53:38;0.30;99.90
31735;DHT22;18313;48.518;9.124;2022-12-18T11:56:35;0.10;99.90
31735;DHT22;18313;48.518;9.124;2022-12-18T11:59:33;-0.10;99.90
31735;DHT22;18313;48.518;9.124;2022-12-18T12:12:59;-0.50;99.90
31735;DHT22;18313;48.518;9.124;2022-12-18T12:18:49;-0.60;99.90
31735;DHT22;18313;48.518;9.124;2022-12-18T12:21:42;-0.50;99.90
31735;DHT22;18313;48.518;9.124;2022-12-18T12:31:10;-0.80;99.90
31735;DHT22;18313;48.518;9.124;2022-12-18T12:37:16;-1.00;99.90
31735;DHT22;18313;48.518;9.124;2022-12-18T12:40:05;-1.10;99.90
31735;DHT22;18313;48.518;9.124;2022-12-18T12:43:28;-1.20;99.90
31735;DHT22;18313;48.518;9.124;2022-12-18T12:46:18;-1.30;99.90
31735;DHT22;18313;48.518;9.124;2022-12-18T12:49:18;-1.40;99.90
31735;DHT22;18313;48.518;9.124;2022-12-18T12:52:11;-1.40;99.90
31735;DHT22;18313;48.518;9.124;2022-12-18T12:55:00;-1.20;99.90
31735;DHT22;18313;48.518;9.124;2022-12-18T12:58:14;-1.20;99.90
31735;DHT22;18313;48.518;9.124;2022-12-18T13:01:10;-1.20;99.90
31735;DHT22;18313;48.518;9.124;2022-12-18T13:04:21;-1.10;99.90
31735;DHT22;18313;48.518;9.124;2022-12-18T13:07:20;-1.00;99.90
31735;DHT22;18313;48.518;9.124;2022-12-18T13:13:11;-1.00;99.90
31735;DHT22;18313;48.518;9.124;2022-12-18T13:16:06;-1.10;99.90
31735;DHT22;18313;48.518;9.124;2022-12-18T13:18:56;-1.10;99.90
31735;DHT22;18313;48.518;9.124;2022-12-18T13:21:52;-1.00;99.90
31735;DHT22;18313;48.518;9.124;2022-12-18T13:24:39;-0.90;99.90
31735;DHT22;18313;48.518;9.124;2022-12-18T13:45:41;-0.90;99.90
31735;DHT22;18313;48.518;9.124;2022-12-18T13:48:32;-1.00;99.90
31735;DHT22;18313;48.518;9.124;2022-12-18T13:51:19;-1.10;99.90
31735;DHT22;18313;48.518;9.124;2022-12-18T13:57:31;-1.30;99.90
31735;DHT22;18313;48.518;9.124;2022-12-18T14:00:28;-1.40;99.90
31735;DHT22;18313;48.518;9.124;2022-12-18T14:03:18;-1.40;99.90
31735;DHT22;18313;48.518;9.124;2022-12-18T14:06:08;-1.50;99.90
31735;DHT22;18313;48.518;9.124;2022-12-18T14:08:54;-1.70;99.90
31735;DHT22;18313;48.518;9.124;2022-12-18T14:11:46;-1.60;99.90
31735;DHT22;18313;48.518;9.124;2022-12-18T14:14:33;-1.60;99.90
31735;DHT22;18313;48.518;9.124;2022-12-18T14:17:19;-1.50;99.90
31735;DHT22;18313;48.518;9.124;2022-12-18T14:20:16;-1.70;99.90
31735;DHT22;18313;48.518;9.124;2022-12-18T14:23:02;-1.70;99.90
31735;DHT22;18313;48.518;9.124;2022-12-18T14:25:48;-1.80;99.90
31735;DHT22;18313;48.518;9.124;2022-12-18T14:28:43;-1.80;99.90
31735;DHT22;18313;48.518;9.124;2022-12-18T14:31:30;-1.70;99.90
31735;DHT22;18313;48.518;9.124;2022-12-18T14:34:17;-1.70;99.90
31735;DHT22;18313;48.518;9.124;2022-12-18T14:37:03;-1.70;99.90
31735;DHT22;18313;48.518;9.124;2022-12-18T14:39:57;-1.70;99.90
31735;DHT22;18313;48.518;9.124;2022-12-18T14:42:44;-1.80;99.90
31735;DHT22;18313;48.518;9.124;2022-12-18T14:45:37;-1.90;99.90
31735;DHT22;18313;48.518;9.124;2022-12-18T14:48:39;-2.10;99.90
31735;DHT22;18313;48.518;9.124;2022-12-18T14:51:27;-2.20;99.90
31735;DHT22;18313;48.518;9.124;2022-12-18T14:54:17;-2.10;99.90
31735;DHT22;18313;48.518;9.124;2022-12-18T14:57:12;-2.20;99.90
31735;DHT22;18313;48.518;9.124;2022-12-18T15:00:06;-2.20;99.90
31735;DHT22;18313;48.518;9.124;2022-12-18T15:02:56;-2.40;99.90
31735;DHT22;18313;48.518;9.124;2022-12-18T15:05:42;-2.60;99.90
31735;DHT22;18313;48.518;9.124;2022-12-18T15:08:34;-2.60;99.90
31735;DHT22;18313;48.518;9.124;2022-12-18T15:11:45;-2.70;99.90
31735;DHT22;18313;48.518;9.124;2022-12-18T15:17:27;-3.00;99.90
31735;DHT22;18313;48.518;9.124;2022-12-18T15:20:13;-3.00;99.90
31735;DHT22;18313;48.518;9.124;2022-12-18T15:22:59;-3.00;99.90
31735;DHT22;18313;48.518;9.124;2022-12-18T15:25:45;-3.10;99.90
31735;DHT22;18313;48.518;9.124;2022-12-18T15:28:55;-3.20;99.90
31735;DHT22;18313;48.518;9.124;2022-12-18T15:31:41;-3.30;99.90
31735;DHT22;18313;48.518;9.124;2022-12-18T15:34:27;-3.40;99.90
31735;DHT22;18313;48.518;9.124;2022-12-18T15:37:13;-3.50;99.90
31735;DHT22;18313;48.518;9.124;2022-12-18T15:39:58;-3.50;99.90
31735;DHT22;18313;48.518;9.124;2022-12-18T15:42:44;-3.50;99.90
31735;DHT22;18313;48.518;9.124;2022-12-18T15:45:49;-3.60;99.90
31735;DHT22;18313;48.518;9.124;2022-12-18T15:48:40;-3.50;99.90
31735;DHT22;18313;48.518;9.124;2022-12-18T15:51:32;-3.60;99.90
31735;DHT22;18313;48.518;9.124;2022-12-18T15:54:18;-3.50;99.90
31735;DHT22;18313;48.518;9.124;2022-12-18T15:57:23;-3.50;99.90
31735;DHT22;18313;48.518;9.124;2022-12-18T16:00:12;-3.50;99.90
31735;DHT22;18313;48.518;9.124;2022-12-18T16:02:57;-3.60;99.90
31735;DHT22;18313;48.518;9.124;2022-12-18T16:05:43;-3.70;99.90
31735;DHT22;18313;48.518;9.124;2022-12-18T16:08:29;-3.80;99.90
31735;DHT22;18313;48.518;9.124;2022-12-18T16:11:24;-3.90;99.90
31735;DHT22;18313;48.518;9.124;2022-12-18T16:14:25;-3.90;99.90
31735;DHT22;18313;48.518;9.124;2022-12-18T16:17:15;-4.00;99.90
31735;DHT22;18313;48.518;9.124;2022-12-18T16:20:00;-4.10;99.90
31735;DHT22;18313;48.518;9.124;2022-12-18T16:22:47;-4.00;99.90
31735;DHT22;18313;48.518;9.124;2022-12-18T16:25:33;-4.00;99.90
31735;DHT22;18313;48.518;9.124;2022-12-18T16:28:18;-4.00;99.90
31735;DHT22;18313;48.518;9.124;2022-12-18T16:31:04;-4.00;99.90
31735;DHT22;18313;48.518;9.124;2022-12-18T16:33:49;-4.00;99.90
31735;DHT22;18313;48.518;9.124;2022-12-18T16:36:55;-4.10;99.90
31735;DHT22;18313;48.518;9.124;2022-12-18T16:39:49;-4.10;99.90
31735;DHT22;18313;48.518;9.124;2022-12-18T16:42:35;-4.00;99.90
31735;DHT22;18313;48.518;9.124;2022-12-18T16:45:21;-3.90;99.90
31735;DHT22;18313;48.518;9.124;2022-12-18T16:48:07;-3.90;99.90
31735;DHT22;18313;48.518;9.124;2022-12-18T16:51:00;-3.90;99.90
31735;DHT22;18313;48.518;9.124;2022-12-18T16:53:46;-3.90;99.90
31735;DHT22;18313;48.518;9.124;2022-12-18T16:56:32;-3.90;99.90
31735;DHT22;18313;48.518;9.124;2022-12-18T16:59:18;-3.90;99.90
31735;DHT22;18313;48.518;9.124;2022-12-18T17:02:04;-3.90;99.90
31735;DHT22;18313;48.518;9.124;2022-12-18T17:04:53;-4.00;99.90
31735;DHT22;18313;48.518;9.124;2022-12-18T17:07:39;-4.00;99.90
31735;DHT22;18313;48.518;9.124;2022-12-18T17:10:24;-3.90;99.90
31735;DHT22;18313;48.518;9.124;2022-12-18T17:13:10;-3.90;99.90
31735;DHT22;18313;48.518;9.124;2022-12-18T17:16:04;-3.90;99.90
31735;DHT22;18313;48.518;9.124;2022-12-18T17:18:53;-3.90;99.90
31735;DHT22;18313;48.518;9.124;2022-12-18T17:21:40;-3.70;99.90
31735;DHT22;18313;48.518;9.124;2022-12-18T17:24:26;-3.70;99.90
31735;DHT22;18313;48.518;9.124;2022-12-18T17:27:19;-3.70;99.90
31735;DHT22;18313;48.518;9.124;2022-12-18T17:30:04;-3.80;99.90
31735;DHT22;18313;48.518;9.124;2022-12-18T17:32:50;-3.70;99.90
31735;DHT22;18313;48.518;9.124;2022-12-18T17:35:36;-3.80;99.90
31735;DHT22;18313;48.518;9.124;2022-12-18T17:38:22;-3.80;99.90
31735;DHT22;18313;48.518;9.124;2022-12-18T17:41:09;-3.80;99.90
31735;DHT22;18313;48.518;9.124;2022-12-18T17:44:02;-3.80;99.90
31735;DHT22;18313;48.518;9.124;2022-12-18T17:46:48;-3.70;99.90
31735;DHT22;18313;48.518;9.124;2022-12-18T17:49:34;-3.60;99.90
31735;DHT22;18313;48.518;9.124;2022-12-18T17:52:20;-3.60;99.90
31735;DHT22;18313;48.518;9.124;2022-12-18T17:55:06;-3.60;99.90
31735;DHT22;18313;48.518;9.124;2022-12-18T17:57:52;-3.60;99.90
31735;DHT22;18313;48.518;9.124;2022-12-18T18:00:38;-3.60;99.90
31735;DHT22;18313;48.518;9.124;2022-12-18T18:03:24;-3.70;99.90
31735;DHT22;18313;48.518;9.124;2022-12-18T18:06:10;-3.70;99.90
31735;DHT22;18313;48.518;9.124;2022-12-18T18:08:56;-3.60;99.90
31735;DHT22;18313;48.518;9.124;2022-12-18T18:11:42;-3.70;99.90
31735;DHT22;18313;48.518;9.124;2022-12-18T18:14:46;-3.60;99.90
31735;DHT22;18313;48.518;9.124;2022-12-18T18:17:32;-3.60;99.90
31735;DHT22;18313;48.518;9.124;2022-12-18T18:20:17;-3.50;99.90
31735;DHT22;18313;48.518;9.124;2022-12-18T18:23:07;-3.50;99.90
31735;DHT22;18313;48.518;9.124;2022-12-18T18:25:53;-3.40;99.90
31735;DHT22;18313;48.518;9.124;2022-12-18T18:28:39;-3.40;99.90
31735;DHT22;18313;48.518;9.124;2022-12-18T18:31:26;-3.40;99.90
31735;DHT22;18313;48.518;9.124;2022-12-18T18:34:14;-3.50;99.90
31735;DHT22;18313;48.518;9.124;2022-12-18T18:37:01;-3.50;99.90
31735;DHT22;18313;48.518;9.124;2022-12-18T18:39:47;-3.50;99.90
31735;DHT22;18313;48.518;9.124;2022-12-18T18:42:32;-3.50;99.90
31735;DHT22;18313;48.518;9.124;2022-12-18T18:45:18;-3.50;99.90
31735;DHT22;18313;48.518;9.124;2022-12-18T18:48:04;-3.40;99.90
31735;DHT22;18313;48.518;9.124;2022-12-18T18:50:57;-3.40;99.90
31735;DHT22;18313;48.518;9.124;2022-12-18T18:53:44;-3.30;99.90
31735;DHT22;18313;48.518;9.124;2022-12-18T18:56:30;-3.40;99.90
31735;DHT22;18313;48.518;9.124;2022-12-18T18:59:36;-3.50;99.90
31735;DHT22;18313;48.518;9.124;2022-12-18T19:02:22;-3.50;99.90
31735;DHT22;18313;48.518;9.124;2022-12-18T19:05:08;-3.60;99.90
31735;DHT22;18313;48.518;9.124;2022-12-18T19:07:54;-3.60;99.90
31735;DHT22;18313;48.518;9.124;2022-12-18T19:10:40;-3.60;99.90
31735;DHT22;18313;48.518;9.124;2022-12-18T19:13:28;-3.60;99.90
31735;DHT22;18313;48.518;9.124;2022-12-18T19:16:14;-3.60;99.90